Time;durP1;ratioP1;P1;durP2;ratioP2;P2;SDS_P1;SDS_P2;PMS_P1;PMS_P2;Temp;Humidity;BMP_temperature;BMP_pressure;BME280_temperature;BME280_humidity;BME280_pressure;Samples;Min_cycle;Max_cycle;Signal;HPM_P1;HPM_P2
2021/03/30 00:00:08;;;;;;;11.68;8.82;;;19.30;55.80;;;;;;6214660;23;20000;-73
2021/03/30 00:02:34;;;;;;;11.85;8.27;;;19.30;55.70;;;;;;6214628;23;20373;-75
2021/03/30 00:05:00;;;;;;;11.52;8.38;;;19.20;55.70;;;;;;6214151;23;20032;-74
2021/03/30 00:07:25;;;;;;;13.20;9.77;;;19.20;55.70;;;;;;6214152;23;19996;-74
2021/03/30 00:09:51;;;;;;;13.40;10.25;;;19.30;55.70;;;;;;6214372;23;20001;-73
2021/03/30 00:12:18;;;;;;;12.68;8.65;;;19.20;55.70;;;;;;6213893;23;20013;-74
2021/03/30 00:14:43;;;;;;;14.68;9.20;;;19.20;55.60;;;;;;6214087;23;20116;-73
2021/03/30 00:17:10;;;;;;;11.50;9.68;;;19.20;55.70;;;;;;6214687;23;20024;-74
2021/03/30 00:19:35;;;;;;;14.30;9.77;;;19.10;55.60;;;;;;6214272;23;20007;-74
2021/03/30 00:22:01;;;;;;;13.68;9.35;;;19.10;55.70;;;;;;6213833;23;20004;-74
2021/03/30 00:24:26;;;;;;;13.55;9.27;;;19.20;55.70;;;;;;6214195;23;20000;-73
2021/03/30 00:26:52;;;;;;;18.65;9.65;;;19.10;55.60;;;;;;6213791;23;20319;-74
2021/03/30 00:29:18;;;;;;;13.43;9.80;;;19.10;55.60;;;;;;6213982;23;20040;-74
2021/03/30 00:31:43;;;;;;;16.40;10.30;;;19.10;55.60;;;;;;6213863;23;20007;-74
2021/03/30 00:34:09;;;;;;;13.52;9.57;;;19.10;55.60;;;;;;6214207;23;20080;-74
2021/03/30 00:36:35;;;;;;;12.00;8.63;;;19.00;55.40;;;;;;6187125;23;20005;-75
2021/03/30 00:39:00;;;;;;;13.23;10.35;;;19.00;55.40;;;;;;6214080;23;20012;-74
2021/03/30 00:41:26;;;;;;;12.93;9.40;;;19.00;55.40;;;;;;6214020;23;20005;-74
2021/03/30 00:43:52;;;;;;;14.80;9.90;;;19.00;55.40;;;;;;6213814;23;20386;-74
2021/03/30 00:46:18;;;;;;;11.93;9.00;;;19.00;55.40;;;;;;6213539;23;20004;-74
2021/03/30 00:48:48;;;;;;;13.50;9.38;;;19.00;55.40;;;;;;6213612;23;20020;-74
2021/03/30 00:51:17;;;;;;;12.57;8.95;;;19.00;55.40;;;;;;6213479;23;20345;-74
2021/03/30 00:53:43;;;;;;;12.95;9.82;;;18.90;55.30;;;;;;6213509;23;20075;-73
2021/03/30 00:56:09;;;;;;;12.20;8.63;;;18.90;55.30;;;;;;6214029;23;20028;-74
2021/03/30 00:58:35;;;;;;;13.50;9.80;;;18.90;55.30;;;;;;6213751;23;20000;-74
2021/03/30 01:01:01;;;;;;;12.02;9.25;;;18.90;55.20;;;;;;6213411;23;20004;-73
2021/03/30 01:03:27;;;;;;;12.95;9.38;;;18.90;55.20;;;;;;6213887;23;20005;-73
2021/03/30 01:05:53;;;;;;;13.05;9.43;;;18.90;55.20;;;;;;6213922;23;20486;-74
2021/03/30 01:08:40;;;;;;;15.65;9.88;;;18.80;55.10;;;;;;6213654;23;20086;-74
2021/03/30 01:11:19;;;;;;;13.20;9.80;;;18.80;55.30;;;;;;6186875;23;20087;-73
2021/03/30 01:13:45;;;;;;;13.50;9.68;;;18.90;55.90;;;;;;6213499;23;20352;-73
2021/03/30 01:16:16;;;;;;;12.70;9.57;;;18.80;55.20;;;;;;6213848;23;20072;-74
2021/03/30 01:19:04;;;;;;;14.73;9.43;;;18.80;55.30;;;;;;6214124;23;20015;-73
2021/03/30 01:21:45;;;;;;;13.93;10.07;;;18.80;55.20;;;;;;6186644;23;20415;-73
2021/03/30 01:24:37;;;;;;;12.43;9.10;;;18.80;55.20;;;;;;6213885;23;20004;-73
2021/03/30 01:27:30;;;;;;;12.75;8.95;;;18.80;55.20;;;;;;6208460;23;20013;-74
2021/03/30 01:29:58;;;;;;;12.40;9.23;;;18.80;55.20;;;;;;6187041;23;20000;-73
2021/03/30 01:32:34;;;;;;;10.98;7.93;;;18.70;55.10;;;;;;6213061;23;20078;-74
2021/03/30 01:35:03;;;;;;;13.05;8.13;;;18.70;55.20;;;;;;6213594;23;20028;-74
2021/03/30 01:37:34;;;;;;;12.65;8.32;;;18.70;55.20;;;;;;6213612;23;20430;-75
2021/03/30 01:40:02;;;;;;;10.48;7.78;;;18.70;55.20;;;;;;6213452;23;20020;-74
2021/03/30 01:42:30;;;;;;;9.93;8.55;;;18.70;55.20;;;;;;6212731;23;20051;-75
2021/03/30 01:44:57;;;;;;;12.07;8.45;;;18.70;55.20;;;;;;6186781;23;20004;-74
2021/03/30 01:47:24;;;;;;;11.30;8.05;;;18.70;55.20;;;;;;6186725;23;20079;-74
2021/03/30 01:49:50;;;;;;;10.13;7.35;;;18.70;55.70;;;;;;6213636;23;20000;-74
2021/03/30 01:52:18;;;;;;;10.95;7.72;;;18.60;55.20;;;;;;6213423;23;20384;-75
2021/03/30 01:54:47;;;;;;;12.38;7.97;;;18.60;55.20;;;;;;6213988;23;20008;-75
2021/03/30 01:57:13;;;;;;;10.52;8.07;;;18.60;55.10;;;;;;6187626;23;20460;-74
2021/03/30 01:59:42;;;;;;;11.02;8.27;;;18.60;55.10;;;;;;6213552;23;20433;-74
2021/03/30 02:02:09;;;;;;;10.40;7.75;;;18.50;55.20;;;;;;6215272;23;20068;-74
2021/03/30 02:04:36;;;;;;;10.25;7.78;;;18.60;55.70;;;;;;6215523;23;20009;-74
2021/03/30 02:07:03;;;;;;;8.73;7.20;;;18.50;55.10;;;;;;6188876;23;20059;-75
2021/03/30 02:09:34;;;;;;;10.23;7.85;;;18.50;55.10;;;;;;6215393;23;20054;-75
2021/03/30 02:12:02;;;;;;;9.90;7.68;;;18.50;55.10;;;;;;6215003;23;20005;-74
2021/03/30 02:14:28;;;;;;;10.13;7.03;;;18.50;55.10;;;;;;6215073;23;20078;-74
2021/03/30 02:17:00;;;;;;;8.77;7.35;;;18.50;55.00;;;;;;6215112;23;20004;-74
2021/03/30 02:19:48;;;;;;;9.55;6.65;;;18.50;55.10;;;;;;6215240;23;20008;-73
2021/03/30 02:22:37;;;;;;;10.95;7.68;;;18.50;55.10;;;;;;6215365;23;20008;-75
2021/03/30 02:25:05;;;;;;;9.68;7.57;;;18.50;55.10;;;;;;6215471;23;20023;-73
2021/03/30 02:27:39;;;;;;;9.55;7.40;;;18.50;55.10;;;;;;6215162;23;20051;-73
2021/03/30 02:30:07;;;;;;;11.77;8.13;;;18.40;55.10;;;;;;6215290;23;20083;-75
2021/03/30 02:32:34;;;;;;;9.65;6.95;;;18.40;55.10;;;;;;6214642;23;20036;-73
2021/03/30 02:35:04;;;;;;;10.52;7.63;;;18.40;55.70;;;;;;6214773;23;20004;-73
2021/03/30 02:37:33;;;;;;;10.43;7.18;;;18.40;55.10;;;;;;6214991;23;20015;-73
2021/03/30 02:40:00;;;;;;;12.07;7.97;;;18.40;55.10;;;;;;6215149;23;20004;-74
2021/03/30 02:42:26;;;;;;;10.43;8.20;;;18.40;55.10;;;;;;6215085;23;20004;-75
2021/03/30 02:44:54;;;;;;;11.93;7.43;;;18.40;55.10;;;;;;6214583;23;20003;-73
2021/03/30 02:47:20;;;;;;;9.07;6.85;;;18.40;55.10;;;;;;6188477;23;20345;-73
2021/03/30 02:49:46;;;;;;;10.85;7.80;;;18.40;55.10;;;;;;6215089;23;20024;-74
2021/03/30 02:52:14;;;;;;;10.73;7.78;;;18.40;55.10;;;;;;6214895;23;20017;-74
2021/03/30 02:54:41;;;;;;;9.40;7.30;;;18.30;55.10;;;;;;6215049;23;20001;-73
2021/03/30 02:57:07;;;;;;;11.05;7.38;;;18.30;55.10;;;;;;6214946;23;20012;-74
2021/03/30 02:59:34;;;;;;;8.73;7.05;;;18.30;55.10;;;;;;6214791;23;20001;-74
2021/03/30 03:02:00;;;;;;;10.18;7.32;;;18.30;55.10;;;;;;6214543;23;19997;-73
2021/03/30 03:04:26;;;;;;;10.02;7.82;;;18.30;55.10;;;;;;6215111;23;20314;-73
2021/03/30 03:06:53;;;;;;;9.13;7.05;;;18.30;55.10;;;;;;6214851;23;20001;-74
2021/03/30 03:09:19;;;;;;;11.25;7.75;;;18.30;55.20;;;;;;6214900;23;20001;-75
2021/03/30 03:11:47;;;;;;;9.02;7.18;;;18.30;55.10;;;;;;6214668;23;20115;-74
2021/03/30 03:14:14;;;;;;;11.15;7.55;;;18.20;55.10;;;;;;6214421;23;20115;-75
2021/03/30 03:16:41;;;;;;;9.07;6.90;;;18.20;55.00;;;;;;6214307;23;20000;-74
2021/03/30 03:19:08;;;;;;;9.98;7.50;;;18.20;55.00;;;;;;6214831;23;20076;-75
2021/03/30 03:21:35;;;;;;;8.60;6.70;;;18.20;54.90;;;;;;6214880;23;20337;-73
2021/03/30 03:24:03;;;;;;;11.05;7.85;;;18.20;55.00;;;;;;6188100;23;20448;-74
2021/03/30 03:26:31;;;;;;;9.82;7.32;;;18.20;55.00;;;;;;6214451;23;20005;-74
2021/03/30 03:28:57;;;;;;;10.82;7.07;;;18.20;55.00;;;;;;6214537;23;20005;-75
2021/03/30 03:31:29;;;;;;;9.68;6.93;;;18.20;55.00;;;;;;6214532;23;20083;-74
2021/03/30 03:34:00;;;;;;;10.63;7.45;;;18.20;55.00;;;;;;6188051;23;20120;-73
2021/03/30 03:36:41;;;;;;;11.95;8.13;;;18.20;55.10;;;;;;6214639;23;19997;-75
2021/03/30 03:39:12;;;;;;;9.63;7.28;;;18.10;55.10;;;;;;6214611;23;19997;-73
2021/03/30 03:41:38;;;;;;;9.15;7.43;;;18.10;55.00;;;;;;6187246;23;20409;-75
2021/03/30 03:44:05;;;;;;;10.40;7.15;;;18.10;55.00;;;;;;6214595;23;20004;-74
2021/03/30 03:46:31;;;;;;;9.02;6.95;;;18.10;55.00;;;;;;6214551;23;20000;-74
2021/03/30 03:48:57;;;;;;;12.30;8.07;;;18.10;55.00;;;;;;6214582;23;20004;-74
2021/03/30 03:51:24;;;;;;;10.48;7.72;;;18.10;55.00;;;;;;6187671;23;20159;-74
2021/03/30 03:53:53;;;;;;;10.07;7.10;;;18.10;55.60;;;;;;6214778;23;20012;-74
2021/03/30 03:56:29;;;;;;;11.18;7.57;;;18.10;55.00;;;;;;6214441;23;20080;-73
2021/03/30 03:59:00;;;;;;;11.02;7.72;;;18.00;54.90;;;;;;6213827;23;20467;-74
2021/03/30 04:01:35;;;;;;;13.00;8.75;;;18.10;55.10;;;;;;6214147;23;20000;-76
2021/03/30 04:04:05;;;;;;;8.45;6.47;;;18.10;55.00;;;;;;6214288;23;20072;-73
2021/03/30 04:06:37;;;;;;;12.77;7.70;;;18.10;55.20;;;;;;6213981;23;20071;-75
2021/03/30 04:09:06;;;;;;;10.55;7.22;;;18.00;54.90;;;;;;6214395;23;20052;-75
2021/03/30 04:11:34;;;;;;;10.77;7.10;;;18.00;54.90;;;;;;6214287;23;20024;-73
2021/03/30 04:14:00;;;;;;;11.05;8.38;;;18.00;54.90;;;;;;6214189;23;20004;-74
2021/03/30 04:16:26;;;;;;;10.52;7.75;;;18.00;54.90;;;;;;6214110;23;20005;-74
2021/03/30 04:18:52;;;;;;;9.20;6.80;;;18.00;54.80;;;;;;6214431;23;20441;-73
2021/03/30 04:21:31;;;;;;;9.52;7.10;;;18.00;54.80;;;;;;6214033;23;20004;-74
2021/03/30 04:23:58;;;;;;;9.45;6.82;;;18.00;54.90;;;;;;6214114;23;20012;-73
2021/03/30 04:26:25;;;;;;;10.05;7.38;;;18.00;54.90;;;;;;6187243;23;20047;-75
2021/03/30 04:28:51;;;;;;;13.50;7.97;;;18.00;54.80;;;;;;6214436;23;20078;-74
2021/03/30 04:31:16;;;;;;;11.65;7.45;;;17.90;54.80;;;;;;6213741;23;20003;-74
2021/03/30 04:33:42;;;;;;;10.60;8.05;;;17.90;54.80;;;;;;6213619;23;20009;-74
2021/03/30 04:36:08;;;;;;;11.77;7.88;;;17.90;54.80;;;;;;6213790;23;20062;-74
2021/03/30 04:38:34;;;;;;;9.65;7.03;;;17.90;54.80;;;;;;6213666;23;20013;-73
2021/03/30 04:40:59;;;;;;;10.43;7.68;;;17.90;54.90;;;;;;6213719;23;20004;-73
2021/03/30 04:43:25;;;;;;;11.95;8.02;;;17.90;54.90;;;;;;6214069;23;20024;-74
2021/03/30 04:45:51;;;;;;;10.70;7.43;;;17.90;54.90;;;;;;6214178;23;20004;-74
2021/03/30 04:48:17;;;;;;;11.30;8.30;;;17.90;54.90;;;;;;6213674;23;20004;-74
2021/03/30 04:50:44;;;;;;;10.55;8.55;;;17.90;54.90;;;;;;6213997;23;20353;-75
2021/03/30 04:53:09;;;;;;;11.15;7.55;;;17.90;54.90;;;;;;6214104;23;20098;-75
2021/03/30 04:55:35;;;;;;;10.38;7.93;;;17.80;54.80;;;;;;6213734;23;20381;-74
2021/03/30 04:58:01;;;;;;;11.50;7.90;;;17.90;54.80;;;;;;6213871;23;20012;-74
2021/03/30 05:00:27;;;;;;;9.73;6.78;;;17.80;54.70;;;;;;6213366;23;20028;-75
2021/03/30 05:02:53;;;;;;;10.65;8.02;;;17.80;54.80;;;;;;6214036;23;20076;-74
2021/03/30 05:05:18;;;;;;;11.00;7.70;;;17.80;54.70;;;;;;6213479;23;20361;-75
2021/03/30 05:07:44;;;;;;;10.55;7.78;;;17.80;54.70;;;;;;6213754;23;20004;-74
2021/03/30 05:10:11;;;;;;;11.60;8.15;;;17.80;54.70;;;;;;6213727;23;20322;-75
2021/03/30 05:12:36;;;;;;;14.18;7.65;;;17.80;54.70;;;;;;6186694;23;20349;-74
2021/03/30 05:15:03;;;;;;;14.80;8.75;;;17.80;54.80;;;;;;6213550;23;20000;-75
2021/03/30 05:17:28;;;;;;;11.75;8.02;;;17.80;54.70;;;;;;6213138;23;20028;-75
2021/03/30 05:19:54;;;;;;;11.30;7.05;;;17.80;54.70;;;;;;6187701;23;20008;-75
2021/03/30 05:22:20;;;;;;;11.82;7.90;;;17.70;54.70;;;;;;6213622;23;20098;-75
2021/03/30 05:24:45;;;;;;;10.63;7.63;;;17.70;54.70;;;;;;6213651;23;20365;-75
2021/03/30 05:27:11;;;;;;;11.77;7.82;;;17.70;54.70;;;;;;6213499;23;20054;-74
2021/03/30 05:29:43;;;;;;;10.95;7.43;;;17.70;54.60;;;;;;6186852;23;20005;-75
2021/03/30 05:32:16;;;;;;;12.00;7.93;;;17.70;54.70;;;;;;6212989;23;20023;-75
2021/03/30 05:34:47;;;;;;;9.77;7.75;;;17.70;54.60;;;;;;6215321;23;20024;-74
2021/03/30 05:37:13;;;;;;;11.13;7.53;;;17.70;54.60;;;;;;6216739;23;20395;-75
2021/03/30 05:39:39;;;;;;;11.55;7.82;;;17.70;54.70;;;;;;6217076;23;20016;-74
2021/03/30 05:42:05;;;;;;;11.20;8.32;;;17.70;54.70;;;;;;6216641;23;20001;-75
2021/03/30 05:44:32;;;;;;;10.35;8.00;;;17.70;54.70;;;;;;6216445;23;20001;-74
2021/03/30 05:47:19;;;;;;;10.85;7.57;;;17.60;54.60;;;;;;6216350;23;20452;-75
2021/03/30 05:49:45;;;;;;;11.27;8.20;;;17.60;54.60;;;;;;6215942;23;20091;-75
2021/03/30 05:52:26;;;;;;;13.13;8.60;;;17.60;54.60;;;;;;6216344;23;20067;-74
2021/03/30 05:54:54;;;;;;;11.68;7.82;;;17.60;54.60;;;;;;6215998;23;20051;-74
2021/03/30 05:57:27;;;;;;;12.63;7.75;;;17.60;54.50;;;;;;6216846;23;20005;-75
2021/03/30 05:59:57;;;;;;;11.13;8.45;;;17.60;54.60;;;;;;6216765;23;20000;-75
2021/03/30 06:02:27;;;;;;;10.88;8.00;;;17.60;54.50;;;;;;6216473;23;19996;-73
2021/03/30 06:04:55;;;;;;;11.90;8.07;;;17.60;54.50;;;;;;6216667;23;20001;-73
2021/03/30 06:07:20;;;;;;;12.93;7.65;;;17.60;54.60;;;;;;6216682;23;19996;-74
2021/03/30 06:09:47;;;;;;;16.25;8.18;;;17.60;54.50;;;;;;6216829;23;20080;-74
2021/03/30 06:12:16;;;;;;;10.43;7.55;;;17.60;54.50;;;;;;6216609;23;20013;-73
2021/03/30 06:14:47;;;;;;;10.55;7.28;;;17.50;54.60;;;;;;6216729;23;20072;-74
2021/03/30 06:17:15;;;;;;;25.67;14.82;;;17.50;54.70;;;;;;6216225;23;20015;-75
2021/03/30 06:19:55;;;;;;;20.92;13.55;;;17.40;54.00;;;;;;6216589;23;20000;-74
2021/03/30 06:22:23;;;;;;;18.00;11.10;;;17.40;54.20;;;;;;6216775;23;20008;-75
2021/03/30 06:24:51;;;;;;;18.92;11.55;;;17.40;54.80;;;;;;6216680;23;20005;-75
2021/03/30 06:27:23;;;;;;;14.95;10.48;;;17.50;55.80;;;;;;6216085;23;20004;-75
2021/03/30 06:29:50;;;;;;;20.20;11.35;;;17.60;55.40;;;;;;6216680;23;20012;-78
2021/03/30 06:32:18;;;;;;;17.55;11.45;;;17.70;55.80;;;;;;6216302;23;20005;-73
2021/03/30 06:34:46;;;;;;;17.23;9.90;;;17.80;56.30;;;;;;6216693;23;20009;-74
2021/03/30 06:37:35;;;;;;;16.23;9.80;;;17.80;56.30;;;;;;6216443;23;20008;-73
2021/03/30 06:40:07;;;;;;;14.77;9.98;;;17.90;56.30;;;;;;6215943;23;20051;-73
2021/03/30 06:42:47;;;;;;;19.02;10.40;;;18.00;56.50;;;;;;6215802;23;19997;-79
2021/03/30 06:45:22;;;;;;;14.10;9.05;;;18.00;56.40;;;;;;6216386;23;20095;-82
2021/03/30 06:47:56;;;;;;;15.45;9.02;;;18.10;56.10;;;;;;6214266;23;20000;-82
2021/03/30 06:50:36;;;;;;;15.02;8.82;;;18.20;56.00;;;;;;6214872;23;20024;-81
2021/03/30 06:53:13;;;;;;;14.50;9.88;;;18.30;55.80;;;;;;6214462;23;20016;-77
2021/03/30 06:55:53;;;;;;;14.25;8.10;;;18.30;55.90;;;;;;6205511;23;20004;-87
2021/03/30 06:58:21;;;;;;;26.52;10.23;;;18.40;55.90;;;;;;6214624;23;20087;-84
2021/03/30 07:00:47;;;;;;;17.23;10.77;;;18.40;56.40;;;;;;6187436;23;20091;-76
2021/03/30 07:03:19;;;;;;;15.20;9.23;;;18.50;55.80;;;;;;6213664;23;20070;-74
2021/03/30 07:05:49;;;;;;;16.23;9.43;;;18.50;55.70;;;;;;6213415;23;20059;-72
2021/03/30 07:08:16;;;;;;;15.80;10.35;;;18.50;55.70;;;;;;6213679;23;20337;-74
2021/03/30 07:10:45;;;;;;;15.15;9.55;;;18.50;55.40;;;;;;6213660;23;20004;-76
2021/03/30 07:13:12;;;;;;;16.08;10.05;;;18.50;55.50;;;;;;6213690;23;20013;-74
2021/03/30 07:15:38;;;;;;;15.70;10.38;;;18.50;55.90;;;;;;6213950;23;20008;-74
2021/03/30 07:18:07;;;;;;;18.67;10.52;;;18.50;55.40;;;;;;6213721;23;20055;-74
2021/03/30 07:20:43;;;;;;;18.08;11.32;;;18.50;55.20;;;;;;6213748;23;20016;-72
2021/03/30 07:23:12;;;;;;;22.17;12.00;;;18.50;55.20;;;;;;6213747;23;20011;-73
2021/03/30 07:25:54;;;;;;;17.50;11.95;;;18.50;54.90;;;;;;6185995;23;20007;-74
2021/03/30 07:28:23;;;;;;;15.52;9.38;;;18.50;55.00;;;;;;6211171;23;20005;-71
2021/03/30 07:30:54;;;;;;;15.57;9.70;;;18.50;55.10;;;;;;6213620;23;20447;-72
2021/03/30 07:33:36;;;;;;;14.73;9.48;;;18.50;55.00;;;;;;6186025;23;20024;-75
2021/03/30 07:36:04;;;;;;;13.82;9.63;;;18.50;55.00;;;;;;6214831;23;20004;-72
2021/03/30 07:38:43;;;;;;;11.90;8.88;;;18.50;54.90;;;;;;6214394;23;20020;-73
2021/03/30 07:41:08;;;;;;;17.27;10.02;;;18.50;54.70;;;;;;6214597;23;20464;-73
2021/03/30 07:43:35;;;;;;;11.85;8.55;;;18.50;54.60;;;;;;6187976;23;20001;-74
2021/03/30 07:46:03;;;;;;;15.68;9.98;;;18.50;54.40;;;;;;6188222;23;20131;-73
2021/03/30 07:48:31;;;;;;;14.25;10.10;;;18.50;54.40;;;;;;6214964;23;20012;-75
2021/03/30 07:51:02;;;;;;;15.48;9.60;;;18.50;54.30;;;;;;6214677;23;20008;-72
2021/03/30 07:53:38;;;;;;;15.55;9.65;;;18.50;54.20;;;;;;6214110;23;20326;-73
2021/03/30 07:56:09;;;;;;;11.35;8.52;;;18.50;54.20;;;;;;6213968;23;20464;-76
2021/03/30 07:58:37;;;;;;;15.32;9.55;;;18.50;54.10;;;;;;6213467;23;20436;-82
2021/03/30 08:01:04;;;;;;;13.35;7.97;;;18.50;54.20;;;;;;6215956;23;20026;-85
2021/03/30 08:03:34;;;;;;;12.77;8.60;;;18.50;54.20;;;;;;6214700;23;20007;-79
2021/03/30 08:06:04;;;;;;;12.02;8.05;;;18.50;54.20;;;;;;6214564;23;20028;-77
2021/03/30 08:08:30;;;;;;;13.95;8.88;;;18.50;54.20;;;;;;6214740;23;19997;-80
2021/03/30 08:10:56;;;;;;;13.68;9.25;;;18.60;54.20;;;;;;6214315;23;20062;-81
2021/03/30 08:13:30;;;;;;;13.25;9.18;;;18.60;54.30;;;;;;6214108;23;20096;-82
2021/03/30 08:16:00;;;;;;;17.10;8.30;;;18.60;54.30;;;;;;6213893;23;20000;-75
2021/03/30 08:18:29;;;;;;;12.65;7.75;;;18.60;54.30;;;;;;6187629;23;20008;-78
2021/03/30 08:21:01;;;;;;;11.27;7.43;;;18.60;54.20;;;;;;6213890;23;19996;-83
2021/03/30 08:23:28;;;;;;;11.50;7.07;;;18.60;54.20;;;;;;6214379;23;20024;-80
2021/03/30 08:26:14;;;;;;;12.43;7.18;;;18.60;54.20;;;;;;6214411;23;20016;-84
2021/03/30 08:28:48;;;;;;;10.40;7.18;;;18.60;54.10;;;;;;6213686;23;20019;-80
2021/03/30 08:31:19;;;;;;;11.18;7.15;;;18.60;54.40;;;;;;6214245;23;20031;-81
2021/03/30 08:33:45;;;;;;;11.52;7.28;;;18.60;54.50;;;;;;6214270;23;20349;-75
2021/03/30 08:36:29;;;;;;;11.63;7.47;;;18.60;54.40;;;;;;6214125;23;20004;-76
2021/03/30 08:39:01;;;;;;;13.30;6.93;;;18.60;54.30;;;;;;6213969;23;20074;-75
2021/03/30 08:41:42;;;;;;;11.82;6.25;;;18.60;54.20;;;;;;6213950;23;20232;-75
2021/03/30 08:44:26;;;;;;;10.82;6.90;;;18.60;54.10;;;;;;6213936;23;20418;-74
2021/03/30 08:46:54;;;;;;;10.48;6.82;;;18.60;54.10;;;;;;6213699;23;20007;-73
2021/03/30 08:49:42;;;;;;;10.50;6.43;;;18.60;54.10;;;;;;6213836;23;20004;-74
2021/03/30 08:52:14;;;;;;;9.57;6.55;;;18.70;54.10;;;;;;6213614;23;20019;-75
2021/03/30 08:54:53;;;;;;;9.43;6.55;;;18.60;54.00;;;;;;6213993;23;20005;-73
2021/03/30 08:57:34;;;;;;;9.68;5.97;;;18.60;54.00;;;;;;6213632;23;20004;-74
2021/03/30 09:00:02;;;;;;;9.85;5.90;;;18.60;53.90;;;;;;6213615;23;20012;-72
2021/03/30 09:02:28;;;;;;;10.60;5.60;;;18.70;54.00;;;;;;6213641;23;20031;-73
2021/03/30 09:04:55;;;;;;;9.43;5.75;;;18.60;53.90;;;;;;6213834;23;20438;-74
2021/03/30 09:07:22;;;;;;;8.77;5.00;;;18.60;53.90;;;;;;6213743;23;20123;-74
2021/03/30 09:09:48;;;;;;;9.82;5.97;;;18.70;54.20;;;;;;6213337;23;20032;-75
2021/03/30 09:12:16;;;;;;;9.32;5.15;;;18.70;56.40;;;;;;6213571;23;20409;-74
2021/03/30 09:14:58;;;;;;;8.32;5.45;;;18.70;55.30;;;;;;6213636;23;20036;-76
2021/03/30 09:17:24;;;;;;;9.13;5.28;;;18.70;55.70;;;;;;6213651;23;20007;-75
2021/03/30 09:19:51;;;;;;;7.88;5.00;;;18.70;55.70;;;;;;6213774;23;20004;-78
2021/03/30 09:27:49;;;;;;;7.65;4.85;;;18.70;55.50;;;;;;6213597;23;20433;-78
2021/03/30 09:30:20;;;;;;;8.18;4.05;;;18.70;55.40;;;;;;6187002;23;20031;-77
2021/03/30 09:32:47;;;;;;;9.77;4.38;;;18.70;55.40;;;;;;6213355;23;20346;-78
2021/03/30 09:35:13;;;;;;;6.65;4.38;;;18.70;55.40;;;;;;6186854;23;20007;-77
2021/03/30 09:37:45;;;;;;;7.38;4.60;;;18.70;55.40;;;;;;6213878;23;20020;-77
2021/03/30 09:40:16;;;;;;;6.88;4.78;;;18.70;55.60;;;;;;6213462;23;20005;-78
2021/03/30 09:42:42;;;;;;;7.10;4.20;;;18.80;55.70;;;;;;6213663;23;20388;-78
2021/03/30 09:45:13;;;;;;;8.35;4.93;;;18.80;55.80;;;;;;6213853;23;20062;-77
2021/03/30 09:47:40;;;;;;;8.07;4.47;;;18.80;56.00;;;;;;6213853;23;20008;-79
2021/03/30 09:50:08;;;;;;;6.75;4.30;;;18.80;56.50;;;;;;6186903;23;20028;-77
2021/03/30 09:52:38;;;;;;;7.07;4.60;;;18.80;56.60;;;;;;6213019;23;20008;-76
2021/03/30 09:55:06;;;;;;;5.47;3.42;;;18.80;56.70;;;;;;6213674;23;20039;-76
2021/03/30 09:57:32;;;;;;;7.53;3.92;;;18.80;56.20;;;;;;6213247;23;20012;-75
2021/03/30 09:59:59;;;;;;;6.30;3.67;;;18.80;56.50;;;;;;6213083;23;20440;-75
2021/03/30 10:02:32;;;;;;;5.13;3.45;;;18.80;56.70;;;;;;6213125;23;20001;-76
2021/03/30 10:05:00;;;;;;;6.00;3.88;;;18.80;56.70;;;;;;6212835;23;20011;-76
2021/03/30 10:07:37;;;;;;;5.53;3.45;;;18.80;57.00;;;;;;6212788;23;20005;-75
2021/03/30 10:10:13;;;;;;;6.97;3.92;;;18.90;57.10;;;;;;6212362;23;20430;-75
2021/03/30 10:13:03;;;;;;;5.90;4.05;;;18.90;57.30;;;;;;6213715;23;20512;-75
2021/03/30 10:15:40;;;;;;;6.07;3.60;;;18.90;57.30;;;;;;6213211;23;20030;-76
2021/03/30 10:18:08;;;;;;;8.98;3.63;;;19.00;57.70;;;;;;6213390;23;20000;-77
2021/03/30 10:20:45;;;;;;;6.05;3.47;;;19.00;57.60;;;;;;6207562;23;20087;-74
2021/03/30 10:23:21;;;;;;;6.68;3.38;;;19.00;57.40;;;;;;6210696;23;20338;-77
2021/03/30 10:25:48;;;;;;;5.78;3.53;;;19.00;57.30;;;;;;6213728;23;19997;-75
2021/03/30 10:28:31;;;;;;;5.25;3.30;;;19.00;57.30;;;;;;6214595;23;20009;-75
2021/03/30 10:31:02;;;;;;;6.20;3.50;;;19.10;57.30;;;;;;6213904;23;20007;-75
2021/03/30 10:33:41;;;;;;;4.70;3.17;;;19.10;57.40;;;;;;6214159;23;20016;-75
2021/03/30 10:36:14;;;;;;;5.18;3.17;;;19.10;57.40;;;;;;6213547;23;20046;-77
2021/03/30 10:39:06;;;;;;;5.05;2.72;;;19.10;57.40;;;;;;6214391;23;20066;-77
2021/03/30 10:41:34;;;;;;;5.63;3.13;;;19.10;57.40;;;;;;6214069;23;20004;-77
2021/03/30 10:44:00;;;;;;;8.00;3.58;;;19.20;57.50;;;;;;6213943;23;20027;-76
2021/03/30 10:46:25;;;;;;;7.88;4.10;;;19.20;57.90;;;;;;6213587;23;20004;-78
2021/03/30 10:49:03;;;;;;;7.85;3.88;;;19.20;58.10;;;;;;6213056;23;20004;-78
2021/03/30 10:51:31;;;;;;;6.97;3.85;;;19.20;58.60;;;;;;6212360;23;20071;-79
2021/03/30 10:54:02;;;;;;;8.15;3.67;;;19.20;58.30;;;;;;6212856;23;20012;-78
2021/03/30 10:56:29;;;;;;;7.53;4.85;;;19.30;58.50;;;;;;6186027;23;20083;-78
2021/03/30 10:58:54;;;;;;;7.38;3.50;;;19.30;58.60;;;;;;6213112;23;20001;-78
2021/03/30 11:01:20;;;;;;;7.63;3.88;;;19.30;58.60;;;;;;6187145;23;20032;-77
2021/03/30 11:03:46;;;;;;;5.63;3.70;;;19.40;58.90;;;;;;6214096;23;20032;-76
2021/03/30 11:06:11;;;;;;;7.00;4.25;;;19.40;59.10;;;;;;6187554;23;20001;-78
2021/03/30 11:08:37;;;;;;;7.05;4.00;;;19.40;58.90;;;;;;6214041;23;20007;-76
2021/03/30 11:11:03;;;;;;;6.13;4.13;;;19.40;58.60;;;;;;6213920;23;20506;-78
2021/03/30 11:13:28;;;;;;;7.15;4.05;;;19.50;58.70;;;;;;6213622;23;20016;-77
2021/03/30 11:15:54;;;;;;;6.97;3.95;;;19.50;58.60;;;;;;6213779;23;20043;-78
2021/03/30 11:18:20;;;;;;;5.38;3.72;;;19.50;58.40;;;;;;6213910;23;20004;-74
2021/03/30 11:20:45;;;;;;;5.43;3.72;;;19.60;58.40;;;;;;6213129;23;20315;-75
2021/03/30 11:23:11;;;;;;;5.53;3.53;;;19.60;58.20;;;;;;6214123;23;20001;-76
2021/03/30 11:25:38;;;;;;;8.48;4.13;;;19.60;58.10;;;;;;6186759;23;20011;-78
2021/03/30 11:28:07;;;;;;;5.97;3.60;;;19.60;58.00;;;;;;6213924;23;20067;-78
2021/03/30 11:30:47;;;;;;;6.28;3.83;;;19.70;58.00;;;;;;6213754;23;20032;-78
2021/03/30 11:38:13;;;;;;;6.35;3.78;;;19.80;57.70;;;;;;6212641;23;20095;-78
2021/03/30 11:40:39;;;;;;;6.07;3.88;;;19.80;57.90;;;;;;6212597;23;20036;-76
2021/03/30 11:43:06;;;;;;;5.47;4.03;;;19.90;57.80;;;;;;6212149;23;20018;-78
2021/03/30 11:45:31;;;;;;;5.85;3.92;;;19.90;57.70;;;;;;6185434;23;20024;-75
2021/03/30 11:47:58;;;;;;;5.60;3.65;;;20.00;57.70;;;;;;6213026;23;20008;-81
2021/03/30 11:50:24;;;;;;;5.82;3.85;;;20.00;57.50;;;;;;6213337;23;20464;-76
2021/03/30 11:52:49;;;;;;;6.82;3.88;;;20.10;57.50;;;;;;6213669;23;20016;-79
2021/03/30 11:55:15;;;;;;;8.48;3.75;;;20.10;57.40;;;;;;6211011;23;20064;-79
2021/03/30 11:57:43;;;;;;;5.55;3.63;;;20.20;57.40;;;;;;6212583;23;20010;-79
2021/03/30 12:00:10;;;;;;;6.43;3.58;;;20.20;57.30;;;;;;6214553;23;20004;-78
2021/03/30 12:02:36;;;;;;;6.88;3.83;;;20.20;57.30;;;;;;6213002;23;20075;-76
2021/03/30 12:05:02;;;;;;;5.47;3.58;;;20.30;57.10;;;;;;6214019;23;20024;-77
2021/03/30 12:07:27;;;;;;;7.32;3.55;;;20.30;57.50;;;;;;6214201;23;20016;-76
2021/03/30 12:09:53;;;;;;;8.88;4.25;;;20.30;57.60;;;;;;6187425;23;20460;-80
2021/03/30 12:12:19;;;;;;;6.38;3.72;;;20.40;57.60;;;;;;6214310;23;20012;-79
2021/03/30 12:14:45;;;;;;;8.93;4.40;;;20.50;57.60;;;;;;6214264;23;20441;-79
2021/03/30 12:17:10;;;;;;;9.68;4.45;;;20.60;57.80;;;;;;6214223;23;20000;-78
2021/03/30 12:19:36;;;;;;;7.00;4.60;;;20.60;58.00;;;;;;6214287;23;20418;-78
2021/03/30 12:22:02;;;;;;;9.32;4.18;;;20.70;58.20;;;;;;6214132;23;20009;-79
2021/03/30 12:24:28;;;;;;;9.45;4.80;;;20.70;58.20;;;;;;6213944;23;20004;-76
2021/03/30 12:26:54;;;;;;;10.30;4.15;;;20.80;58.20;;;;;;6187449;23;20454;-79
2021/03/30 12:29:20;;;;;;;8.63;4.13;;;20.90;58.20;;;;;;6214128;23;20350;-79
2021/03/30 12:31:46;;;;;;;7.88;3.53;;;21.00;58.10;;;;;;6214098;23;20024;-81
2021/03/30 12:34:13;;;;;;;10.18;3.80;;;21.00;58.00;;;;;;6214539;23;20032;-78
2021/03/30 12:36:39;;;;;;;8.13;4.55;;;21.10;58.00;;;;;;6213713;23;20004;-80
2021/03/30 12:39:05;;;;;;;5.97;3.80;;;21.10;58.00;;;;;;6213620;23;20587;-80
2021/03/30 12:41:30;;;;;;;9.38;4.20;;;21.20;57.80;;;;;;6213842;23;20479;-79
2021/03/30 12:43:56;;;;;;;10.05;4.05;;;21.30;57.60;;;;;;6186887;23;20012;-80
2021/03/30 12:46:22;;;;;;;6.30;4.25;;;21.40;56.80;;;;;;6213956;23;20040;-79
2021/03/30 12:48:48;;;;;;;9.45;4.50;;;21.50;56.60;;;;;;6213696;23;20011;-81
2021/03/30 12:51:14;;;;;;;9.75;4.47;;;21.50;56.50;;;;;;6213658;23;20319;-81
2021/03/30 12:53:41;;;;;;;6.20;3.83;;;21.60;56.30;;;;;;6213240;23;20503;-78
2021/03/30 12:56:07;;;;;;;8.05;3.65;;;21.60;56.20;;;;;;6213441;23;20406;-78
2021/03/30 12:58:32;;;;;;;6.93;3.75;;;21.70;55.90;;;;;;6213560;23;20055;-76
2021/03/30 13:00:58;;;;;;;6.10;3.65;;;21.80;55.80;;;;;;6213656;23;20071;-74